Time;durP1;ratioP1;P1;durP2;ratioP2;P2;SDS_P1;SDS_P2;PMS_P1;PMS_P2;Temp;Humidity;BMP_temperature;BMP_pressure;BME280_temperature;BME280_humidity;BME280_pressure;Samples;Min_cycle;Max_cycle;Signal;HPM_P1;HPM_P2
2024/02/21 00:01:40;;;;;;;11.07;0.60;;;;;;;;;;5061349;28;20420;-83
2024/02/21 00:04:06;;;;;;;8.98;0.30;;;9.20;99.90;;;;;;5061995;28;20036;-83
2024/02/21 00:06:32;;;;;;;8.95;1.30;;;9.20;99.90;;;;;;5061519;28;20025;-83
2024/02/21 00:08:58;;;;;;;9.50;0.47;;;9.20;99.90;;;;;;5061283;28;20021;-83
2024/02/21 00:11:24;;;;;;;7.97;0.55;;;;;;;;;;5060592;28;20029;-83
2024/02/21 00:13:50;;;;;;;11.10;0.38;;;9.10;99.90;;;;;;5061697;28;20075;-83
2024/02/21 00:16:16;;;;;;;9.75;1.63;;;9.20;99.90;;;;;;5061353;28;20055;-82
2024/02/21 00:18:42;;;;;;;11.57;1.23;;;;;;;;;;5062371;28;20098;-82
2024/02/21 00:21:08;;;;;;;9.45;1.02;;;9.20;99.90;;;;;;5061442;28;20029;-83
2024/02/21 00:23:34;;;;;;;13.70;1.27;;;9.20;99.90;;;;;;5062479;28;20472;-83
2024/02/21 00:26:00;;;;;;;4.82;0.65;;;;;;;;;;5061292;28;20097;-84
2024/02/21 00:28:26;;;;;;;13.20;0.93;;;;;;;;;;5061397;28;20021;-83
2024/02/21 00:30:53;;;;;;;8.38;0.80;;;;;;;;;;5062490;28;20040;-83
2024/02/21 00:33:19;;;;;;;13.25;1.00;;;9.20;99.90;;;;;;5061936;28;20025;-83
2024/02/21 00:35:44;;;;;;;7.03;0.40;;;9.20;99.90;;;;;;5061369;28;20039;-83
2024/02/21 00:38:10;;;;;;;9.38;1.05;;;9.30;99.90;;;;;;5060467;28;20039;-83
2024/02/21 00:40:36;;;;;;;8.50;1.05;;;;;;;;;;5062275;28;20100;-83
2024/02/21 00:43:03;;;;;;;13.77;1.92;;;;;;;;;;5059920;28;20025;-83
2024/02/21 00:45:28;;;;;;;11.13;1.20;;;9.30;99.90;;;;;;5060258;28;20021;-82
2024/02/21 00:47:54;;;;;;;11.55;1.45;;;;;;;;;;5060715;28;20135;-83
2024/02/21 00:50:20;;;;;;;10.18;0.68;;;9.30;99.90;;;;;;5061529;28;20029;-83
2024/02/21 00:52:45;;;;;;;6.78;0.80;;;9.30;99.90;;;;;;5059347;28;20063;-83
2024/02/21 00:55:11;;;;;;;8.65;1.02;;;10.10;99.90;;;;;;5061105;28;20021;-83
2024/02/21 00:57:37;;;;;;;7.18;0.40;;;9.30;99.90;;;;;;5061822;28;20086;-82
2024/02/21 01:00:07;;;;;;;9.90;0.70;;;9.40;99.90;;;;;;5060473;28;20021;-82
2024/02/21 01:02:33;;;;;;;11.55;0.57;;;9.40;99.90;;;;;;5060621;28;20079;-83
2024/02/21 01:04:59;;;;;;;5.30;0.73;;;;;;;;;;5061053;28;20440;-84
2024/02/21 01:07:25;;;;;;;8.80;0.73;;;9.30;99.90;;;;;;5060790;28;20025;-83
2024/02/21 01:09:51;;;;;;;6.03;0.45;;;;;;;;;;5062312;28;20388;-83
2024/02/21 01:12:17;;;;;;;12.10;1.35;;;9.30;99.90;;;;;;5060379;28;20029;-83
2024/02/21 01:14:42;;;;;;;10.82;0.57;;;9.30;99.90;;;;;;5060503;28;20017;-83
2024/02/21 01:17:08;;;;;;;4.38;0.82;;;9.30;99.90;;;;;;5060112;28;20017;-82
2024/02/21 01:19:34;;;;;;;7.30;0.43;;;9.40;99.90;;;;;;5059700;28;20031;-82
2024/02/21 01:21:59;;;;;;;7.03;0.70;;;9.30;99.90;;;;;;5060053;28;20366;-83
2024/02/21 01:24:25;;;;;;;7.80;1.50;;;10.20;99.90;;;;;;5061026;28;20029;-82
2024/02/21 01:26:51;;;;;;;5.57;1.30;;;;;;;;;;5060632;28;20025;-83
2024/02/21 01:29:17;;;;;;;7.10;0.80;;;9.40;99.90;;;;;;5060116;28;20396;-83
2024/02/21 01:31:42;;;;;;;5.10;0.60;;;9.40;99.90;;;;;;5060049;28;20028;-83
2024/02/21 01:34:08;;;;;;;9.38;0.52;;;9.30;99.90;;;;;;5060069;28;20076;-83
2024/02/21 01:36:34;;;;;;;9.50;0.45;;;9.30;99.90;;;;;;5059904;28;20027;-83
2024/02/21 01:38:59;;;;;;;12.27;0.90;;;9.30;99.90;;;;;;5060497;28;20534;-83
2024/02/21 01:41:25;;;;;;;8.18;0.88;;;9.30;99.90;;;;;;5060958;28;20029;-84
2024/02/21 01:43:50;;;;;;;4.55;0.55;;;9.30;99.90;;;;;;5060846;28;20021;-83
2024/02/21 01:46:16;;;;;;;5.25;0.77;;;9.20;99.90;;;;;;5060938;28;20005;-83
2024/02/21 01:48:42;;;;;;;7.82;1.35;;;9.20;99.90;;;;;;5061031;28;20017;-82
2024/02/21 01:51:08;;;;;;;14.27;1.50;;;9.20;99.90;;;;;;5061329;28;20079;-83
2024/02/21 01:53:40;;;;;;;11.88;1.08;;;9.20;99.90;;;;;;5059786;28;20506;-82
2024/02/21 01:56:06;;;;;;;12.40;1.83;;;;;;;;;;5060719;28;20396;-82
2024/02/21 01:58:36;;;;;;;13.98;2.35;;;9.30;99.90;;;;;;5059178;28;20055;-84
2024/02/21 02:01:02;;;;;;;11.43;0.85;;;;;;;;;;5059739;28;20017;-83
2024/02/21 02:03:29;;;;;;;13.35;1.10;;;;;;;;;;5059840;28;20025;-84
2024/02/21 02:05:55;;;;;;;12.30;1.35;;;9.30;99.90;;;;;;5060298;28;20106;-83
2024/02/21 02:08:25;;;;;;;11.70;1.73;;;;;;;;;;5059927;28;20013;-83
2024/02/21 02:10:50;;;;;;;12.55;2.30;;;9.30;99.90;;;;;;5060170;28;20025;-83
2024/02/21 02:13:16;;;;;;;9.50;1.17;;;9.30;99.90;;;;;;5060880;28;20079;-83
2024/02/21 02:15:43;;;;;;;16.75;1.77;;;9.30;99.90;;;;;;5059616;28;20024;-84
2024/02/21 02:18:09;;;;;;;12.90;1.70;;;9.30;99.90;;;;;;5060063;28;20029;-83
2024/02/21 02:20:36;;;;;;;7.50;1.35;;;9.30;99.90;;;;;;5058858;28;20107;-83
2024/02/21 02:23:14;;;;;;;10.60;0.47;;;9.40;99.90;;;;;;5058948;28;20111;-83
2024/02/21 02:25:40;;;;;;;13.68;1.70;;;9.30;99.90;;;;;;5059510;28;20036;-83
2024/02/21 02:28:09;;;;;;;11.23;1.98;;;9.40;99.90;;;;;;5059179;28;20021;-84
2024/02/21 02:30:36;;;;;;;;;;;9.30;99.90;;;;;;5060977;28;20025;-84
2024/02/21 02:33:05;;;;;;;12.07;2.17;;;9.30;99.90;;;;;;5058746;28;20395;-83
2024/02/21 02:35:31;;;;;;;4.90;1.20;;;9.30;99.90;;;;;;5058912;28;20456;-83
2024/02/21 02:37:57;;;;;;;8.77;2.45;;;9.20;99.90;;;;;;5060433;28;20048;-83
2024/02/21 02:40:23;;;;;;;8.75;1.83;;;9.30;99.90;;;;;;5059247;28;20032;-83
2024/02/21 02:42:49;;;;;;;6.72;1.45;;;9.20;99.90;;;;;;5059478;28;20028;-83
2024/02/21 02:45:18;;;;;;;18.17;3.20;;;9.20;99.90;;;;;;5060335;28;20067;-83
2024/02/21 02:47:47;;;;;;;12.88;1.00;;;9.30;99.90;;;;;;5059199;28;20033;-83
2024/02/21 02:50:13;;;;;;;7.70;2.80;;;9.30;99.90;;;;;;5059229;28;20025;-82
2024/02/21 02:52:39;;;;;;;6.63;0.88;;;9.30;99.90;;;;;;5060884;28;20025;-83
2024/02/21 02:55:05;;;;;;;11.75;2.20;;;9.30;99.90;;;;;;5059487;28;20468;-84
2024/02/21 02:57:32;;;;;;;7.72;1.23;;;9.30;99.90;;;;;;5060066;28;20025;-83
2024/02/21 02:59:58;;;;;;;8.82;2.05;;;;;;;;;;5058037;28;20053;-83
2024/02/21 03:02:24;;;;;;;8.75;1.20;;;9.20;99.90;;;;;;5059111;28;20028;-82
2024/02/21 03:04:49;;;;;;;12.30;2.15;;;9.30;99.90;;;;;;5058813;28;20059;-83
2024/02/21 03:07:15;;;;;;;13.02;2.22;;;9.20;99.90;;;;;;5058793;28;20025;-83
2024/02/21 03:09:42;;;;;;;7.55;1.45;;;9.20;99.90;;;;;;5058291;28;20099;-82
2024/02/21 03:12:08;;;;;;;8.95;1.90;;;;;;;;;;5057871;28;20382;-83
2024/02/21 03:14:35;;;;;;;9.82;2.47;;;;;;;;;;5059284;28;20503;-83
2024/02/21 03:17:02;;;;;;;13.02;1.80;;;9.10;99.90;;;;;;5058629;28;20055;-83
2024/02/21 03:19:28;;;;;;;14.23;1.38;;;;;;;;;;5058475;28;20111;-83
2024/02/21 03:21:54;;;;;;;11.40;2.65;;;9.20;99.90;;;;;;5060694;28;20033;-83
2024/02/21 03:24:20;;;;;;;10.70;1.90;;;9.20;99.90;;;;;;5058583;28;20128;-83
2024/02/21 03:26:47;;;;;;;6.32;1.85;;;9.20;99.90;;;;;;5058312;28;20092;-83
2024/02/21 03:29:14;;;;;;;9.82;1.88;;;9.20;99.90;;;;;;5058846;28;20104;-83
2024/02/21 03:31:40;;;;;;;14.27;2.55;;;9.20;99.90;;;;;;5059124;28;20021;-83
2024/02/21 03:34:06;;;;;;;7.65;1.48;;;;;;;;;;5058452;28;20388;-83
2024/02/21 03:36:32;;;;;;;7.13;1.88;;;9.10;99.90;;;;;;5060950;28;20437;-84
2024/02/21 03:38:57;;;;;;;11.50;2.47;;;9.10;99.90;;;;;;5059856;28;20048;-83
2024/02/21 03:41:23;;;;;;;15.10;1.83;;;9.10;99.90;;;;;;5059141;28;20151;-83
2024/02/21 03:43:49;;;;;;;9.77;1.67;;;9.10;99.90;;;;;;5058573;28;20028;-84
2024/02/21 03:46:15;;;;;;;6.50;1.80;;;9.10;99.90;;;;;;5057874;28;20021;-82
2024/02/21 03:48:41;;;;;;;7.60;2.45;;;9.10;99.90;;;;;;5058635;28;20020;-83
2024/02/21 03:51:07;;;;;;;11.23;1.85;;;9.10;99.90;;;;;;5058538;28;20044;-83
2024/02/21 03:53:33;;;;;;;6.57;1.52;;;9.10;99.90;;;;;;5058705;28;20029;-82
2024/02/21 03:56:03;;;;;;;4.95;1.50;;;9.10;99.90;;;;;;5058320;28;20029;-83
2024/02/21 03:58:32;;;;;;;9.13;1.67;;;9.10;99.90;;;;;;5060433;28;20074;-83
2024/02/21 04:01:01;;;;;;;7.55;1.08;;;9.10;99.90;;;;;;5058072;28;20028;-83
2024/02/21 04:03:27;;;;;;;13.35;1.75;;;;;;;;;;5058309;28;20040;-83
2024/02/21 04:05:53;;;;;;;12.52;2.20;;;;;;;;;;5058980;28;20461;-82
2024/02/21 04:08:19;;;;;;;9.43;1.58;;;9.10;99.90;;;;;;5058147;28;20031;-83
2024/02/21 04:10:45;;;;;;;8.45;1.42;;;;;;;;;;5060077;28;20472;-83
2024/02/21 04:13:10;;;;;;;13.25;2.65;;;9.10;99.90;;;;;;5057235;28;20032;-83
2024/02/21 04:15:36;;;;;;;9.40;1.20;;;9.10;99.90;;;;;;5058229;28;20100;-82
2024/02/21 04:18:03;;;;;;;8.20;2.33;;;9.10;99.90;;;;;;5058897;28;20017;-83
2024/02/21 04:20:29;;;;;;;7.65;1.27;;;9.10;99.90;;;;;;5059180;28;20024;-83
2024/02/21 04:22:55;;;;;;;4.88;1.10;;;;;;;;;;5058305;28;20017;-82
2024/02/21 04:25:21;;;;;;;13.45;2.28;;;9.20;99.90;;;;;;5057682;28;20044;-83
2024/02/21 04:27:47;;;;;;;4.65;0.95;;;;;;;;;;5059932;28;20021;-82
2024/02/21 04:30:13;;;;;;;7.32;1.92;;;9.10;99.90;;;;;;5062204;28;20499;-83
2024/02/21 04:32:39;;;;;;;6.80;1.52;;;9.10;99.90;;;;;;5060391;28;20077;-83
2024/02/21 04:35:05;;;;;;;9.23;1.60;;;9.10;99.90;;;;;;5060836;28;20457;-83
2024/02/21 04:37:31;;;;;;;6.53;1.25;;;;;;;;;;5062556;28;20103;-83
2024/02/21 04:39:57;;;;;;;7.85;2.08;;;;;;;;;;5061003;28;20028;-83
2024/02/21 04:42:22;;;;;;;6.80;1.80;;;9.10;99.90;;;;;;5060711;28;20029;-83
2024/02/21 04:44:48;;;;;;;9.63;1.27;;;9.10;99.90;;;;;;5061948;28;20120;-83
2024/02/21 04:47:14;;;;;;;7.75;3.03;;;;;;;;;;5061505;28;20021;-82
2024/02/21 04:49:40;;;;;;;6.28;1.70;;;9.20;99.90;;;;;;5060993;28;20032;-84
2024/02/21 04:52:06;;;;;;;6.55;2.13;;;9.10;99.90;;;;;;5061420;28;20104;-83
2024/02/21 04:54:31;;;;;;;6.25;2.28;;;9.00;99.90;;;;;;5061225;28;20036;-83
2024/02/21 04:56:57;;;;;;;10.95;3.92;;;;;;;;;;5060898;28;20119;-83
2024/02/21 04:59:23;;;;;;;9.02;2.88;;;;;;;;;;5060722;28;20392;-83
2024/02/21 05:01:49;;;;;;;9.85;3.47;;;9.00;99.90;;;;;;5060957;28;20033;-82
2024/02/21 05:04:15;;;;;;;7.88;2.58;;;9.10;99.90;;;;;;5060693;28;20036;-83
2024/02/21 05:06:41;;;;;;;9.00;2.00;;;9.10;99.90;;;;;;5060220;28;20025;-83
2024/02/21 05:09:08;;;;;;;5.15;2.22;;;9.10;99.90;;;;;;5060690;28;20049;-83
2024/02/21 05:11:35;;;;;;;7.05;2.25;;;;;;;;;;5061722;28;20391;-83
2024/02/21 05:14:01;;;;;;;11.05;2.60;;;;;;;;;;5060041;28;20488;-83
2024/02/21 05:16:26;;;;;;;8.25;2.80;;;9.10;99.90;;;;;;5060306;28;20503;-82
2024/02/21 05:18:52;;;;;;;7.88;3.17;;;9.10;99.90;;;;;;5061447;28;20069;-83
2024/02/21 05:21:19;;;;;;;10.40;3.38;;;;;;;;;;5061655;28;20021;-84
2024/02/21 05:23:44;;;;;;;5.68;2.55;;;9.10;99.90;;;;;;5061742;28;20120;-84
2024/02/21 05:26:10;;;;;;;8.93;2.70;;;9.10;99.90;;;;;;5061918;28;20065;-84
2024/02/21 05:28:36;;;;;;;8.07;2.88;;;9.10;99.90;;;;;;5060930;28;20067;-84
2024/02/21 05:31:01;;;;;;;8.73;3.58;;;9.10;99.90;;;;;;5060282;28;20025;-83
2024/02/21 05:33:27;;;;;;;7.05;2.22;;;9.10;99.90;;;;;;5061839;28;20096;-82
2024/02/21 05:35:52;;;;;;;11.38;2.67;;;9.10;99.90;;;;;;5060334;28;20036;-83
2024/02/21 05:38:18;;;;;;;7.88;2.67;;;9.10;99.90;;;;;;5060658;28;20021;-83
2024/02/21 05:40:47;;;;;;;10.80;4.43;;;9.10;99.90;;;;;;5059557;28;20118;-84
2024/02/21 05:43:13;;;;;;;7.80;2.95;;;9.10;99.90;;;;;;5059479;28;20017;-84
2024/02/21 05:45:39;;;;;;;9.73;2.83;;;;;;;;;;5060382;28;20052;-83
2024/02/21 05:48:05;;;;;;;8.07;2.92;;;9.10;99.90;;;;;;5059537;28;20021;-83
2024/02/21 05:50:32;;;;;;;14.20;2.90;;;;;;;;;;5059627;28;20039;-83
2024/02/21 05:52:57;;;;;;;7.68;2.63;;;9.10;99.90;;;;;;5059743;28;20403;-83
2024/02/21 05:55:23;;;;;;;13.55;2.72;;;9.10;99.90;;;;;;5060563;28;20021;-83
2024/02/21 05:57:49;;;;;;;6.70;2.80;;;;;;;;;;5059578;28;20029;-84
2024/02/21 06:00:15;;;;;;;7.18;2.58;;;9.10;99.90;;;;;;5061310;28;20040;-83
2024/02/21 06:02:41;;;;;;;6.43;2.60;;;9.10;99.90;;;;;;5060111;28;20361;-83
2024/02/21 06:05:08;;;;;;;13.43;3.55;;;9.10;99.90;;;;;;5060562;28;20023;-84
2024/02/21 06:07:34;;;;;;;7.30;2.40;;;9.10;99.90;;;;;;5059758;28;20029;-83
2024/02/21 06:10:01;;;;;;;11.80;2.38;;;;;;;;;;5059993;28;20025;-83
2024/02/21 06:12:26;;;;;;;8.15;2.67;;;9.10;99.90;;;;;;5061034;28;20533;-82
2024/02/21 06:14:52;;;;;;;11.55;3.60;;;9.10;99.90;;;;;;5059679;28;20108;-83
2024/02/21 06:17:18;;;;;;;10.25;3.55;;;9.20;99.90;;;;;;5060013;28;20021;-84
2024/02/21 06:19:44;;;;;;;9.77;2.20;;;9.10;99.90;;;;;;5059629;28;20029;-83
2024/02/21 06:22:11;;;;;;;9.65;3.45;;;9.10;99.90;;;;;;5059295;28;20025;-84
2024/02/21 06:24:39;;;;;;;12.35;3.40;;;9.10;99.90;;;;;;5059678;28;20035;-83
2024/02/21 06:27:05;;;;;;;8.23;3.53;;;9.10;99.90;;;;;;5059152;28;20029;-83
2024/02/21 06:29:32;;;;;;;6.88;3.00;;;;;;;;;;5060254;28;20090;-83
2024/02/21 06:31:58;;;;;;;12.98;4.15;;;9.00;99.90;;;;;;5060695;28;20033;-83
2024/02/21 06:34:24;;;;;;;13.82;4.30;;;;;;;;;;5060647;28;20119;-82
2024/02/21 06:36:50;;;;;;;14.00;4.07;;;;;;;;;;5059449;28;20079;-83
2024/02/21 06:39:16;;;;;;;10.82;4.18;;;9.10;99.90;;;;;;5059206;28;20028;-83
2024/02/21 06:41:42;;;;;;;12.52;4.32;;;9.00;99.90;;;;;;5059235;28;20039;-83
2024/02/21 06:44:08;;;;;;;14.43;5.00;;;9.10;99.90;;;;;;5058571;28;20384;-83
2024/02/21 06:46:33;;;;;;;9.07;4.22;;;9.10;99.90;;;;;;5058608;28;20036;-83
2024/02/21 06:49:00;;;;;;;16.20;4.43;;;9.00;99.90;;;;;;5059150;28;20056;-83
2024/02/21 06:51:27;;;;;;;16.23;4.75;;;9.00;99.90;;;;;;5058263;28;20503;-83
2024/02/21 06:53:53;;;;;;;18.30;4.75;;;9.00;99.90;;;;;;5059440;28;20027;-83
2024/02/21 06:56:19;;;;;;;10.45;3.83;;;;;;;;;;5058638;28;20031;-83
2024/02/21 06:58:45;;;;;;;14.23;4.05;;;9.00;99.90;;;;;;5060832;28;20438;-84
2024/02/21 07:01:11;;;;;;;16.73;5.20;;;9.00;99.90;;;;;;5059348;28;20092;-83
2024/02/21 07:03:37;;;;;;;13.25;4.28;;;;;;;;;;5059834;28;20031;-83
2024/02/21 07:06:03;;;;;;;12.32;3.97;;;9.00;99.90;;;;;;5060123;28;20392;-83
2024/02/21 07:08:29;;;;;;;10.18;4.25;;;9.00;99.90;;;;;;5059823;28;20028;-83
2024/02/21 07:10:55;;;;;;;17.55;5.38;;;9.00;99.90;;;;;;5058764;28;20029;-83
2024/02/21 07:13:22;;;;;;;14.95;4.68;;;;;;;;;;5059023;28;20021;-83
2024/02/21 07:15:48;;;;;;;14.45;4.95;;;9.00;99.90;;;;;;5059499;28;20037;-83
2024/02/21 07:18:14;;;;;;;13.45;4.68;;;;;;;;;;5060785;28;20029;-83
2024/02/21 07:20:41;;;;;;;17.45;4.30;;;8.90;99.90;;;;;;5057998;28;20040;-82
2024/02/21 07:23:08;;;;;;;12.48;4.65;;;9.00;99.90;;;;;;5058260;28;20392;-83
2024/02/21 07:25:33;;;;;;;19.70;4.78;;;9.00;99.90;;;;;;5058093;28;20017;-83
2024/02/21 07:28:00;;;;;;;12.20;4.25;;;8.90;99.90;;;;;;5059695;28;20048;-83
2024/02/21 07:30:26;;;;;;;14.57;4.75;;;;;;;;;;5058284;28;20071;-83
2024/02/21 07:32:52;;;;;;;20.92;6.20;;;;;;;;;;5058679;28;20035;-83
2024/02/21 07:35:18;;;;;;;23.88;6.93;;;;;;;;;;5059584;28;20082;-83
2024/02/21 07:37:44;;;;;;;16.73;5.35;;;;;;;;;;5059488;28;20036;-83
2024/02/21 07:40:15;;;;;;;14.05;4.80;;;8.90;99.90;;;;;;5060805;28;20037;-83
2024/02/21 07:42:40;;;;;;;19.73;5.03;;;8.90;99.90;;;;;;5060753;28;20024;-83
2024/02/21 07:45:07;;;;;;;12.18;4.88;;;8.90;99.90;;;;;;5059269;28;20023;-83
2024/02/21 07:47:33;;;;;;;14.30;4.75;;;9.00;99.90;;;;;;5059661;28;20563;-83
2024/02/21 07:49:59;;;;;;;15.98;4.28;;;;;;;;;;5058626;28;20041;-83
2024/02/21 07:52:24;;;;;;;21.30;5.30;;;9.00;99.90;;;;;;5058376;28;20033;-83
2024/02/21 07:54:50;;;;;;;11.95;4.22;;;9.00;99.90;;;;;;5060052;28;20025;-83
2024/02/21 07:57:16;;;;;;;17.83;5.38;;;9.00;99.90;;;;;;5059137;28;20472;-83
2024/02/21 07:59:42;;;;;;;19.75;5.68;;;;;;;;;;5059533;28;20393;-83
2024/02/21 08:02:08;;;;;;;14.23;4.57;;;9.00;99.90;;;;;;5057957;28;20029;-83
2024/02/21 08:04:33;;;;;;;17.73;4.47;;;9.10;99.90;;;;;;5062983;28;20036;-83
2024/02/21 08:07:02;;;;;;;14.82;5.10;;;9.10;99.90;;;;;;5063624;28;20017;-84
2024/02/21 08:09:28;;;;;;;15.85;5.22;;;9.10;99.90;;;;;;5062198;28;20539;-83
2024/02/21 08:11:54;;;;;;;15.25;5.70;;;9.10;99.90;;;;;;5061598;28;20507;-83
2024/02/21 08:14:21;;;;;;;15.10;5.20;;;9.20;99.90;;;;;;5061919;28;20372;-82
2024/02/21 08:16:47;;;;;;;20.80;5.40;;;;;;;;;;5063281;28;20399;-83
2024/02/21 08:19:13;;;;;;;12.70;5.07;;;;;;;;;;5063860;28;20025;-83
2024/02/21 08:21:38;;;;;;;12.00;3.85;;;9.20;99.90;;;;;;5061498;28;20029;-84
2024/02/21 08:24:05;;;;;;;12.65;5.20;;;;;;;;;;5062402;28;20036;-83
2024/02/21 08:26:31;;;;;;;15.68;4.68;;;;;;;;;;5062585;28;20025;-82
2024/02/21 08:29:00;;;;;;;11.40;4.57;;;9.20;99.90;;;;;;5063453;28;20488;-83
2024/02/21 08:31:34;;;;;;;14.35;5.13;;;9.20;99.90;;;;;;5063351;28;20024;-83
2024/02/21 08:34:03;;;;;;;15.77;5.22;;;9.20;99.90;;;;;;5062770;28;20025;-82
2024/02/21 08:36:36;;;;;;;16.02;5.03;;;9.20;99.90;;;;;;5063043;28;20021;-82
2024/02/21 08:39:03;;;;;;;17.02;5.32;;;9.30;99.90;;;;;;5061913;28;20036;-83
2024/02/21 08:41:32;;;;;;;17.83;5.00;;;10.80;99.90;;;;;;5062016;28;20031;-83
2024/02/21 08:43:58;;;;;;;14.60;5.25;;;9.20;99.90;;;;;;5063209;28;20025;-82
2024/02/21 08:46:24;;;;;;;16.75;5.32;;;9.30;99.90;;;;;;5064971;28;20032;-83
2024/02/21 08:48:54;;;;;;;18.45;5.75;;;9.30;99.90;;;;;;5064041;28;20013;-83
2024/02/21 08:51:20;;;;;;;21.63;6.97;;;;;;;;;;5063442;28;20031;-82
2024/02/21 08:53:47;;;;;;;16.25;6.45;;;9.40;99.90;;;;;;5062914;28;20025;-84
2024/02/21 08:56:13;;;;;;;17.17;5.72;;;;;;;;;;5062665;28;20476;-81
2024/02/21 08:58:40;;;;;;;16.25;5.40;;;9.50;99.90;;;;;;5063321;28;20423;-84
2024/02/21 09:01:10;;;;;;;11.98;4.80;;;9.60;99.90;;;;;;5062706;28;20040;-83
2024/02/21 09:03:39;;;;;;;18.83;5.45;;;9.50;99.90;;;;;;5062068;28;20085;-82
2024/02/21 09:06:09;;;;;;;12.00;4.50;;;9.50;99.90;;;;;;5061515;28;20039;-83
2024/02/21 09:08:35;;;;;;;9.10;4.10;;;9.60;99.90;;;;;;5061809;28;20439;-83
2024/02/21 09:11:01;;;;;;;12.60;4.43;;;;;;;;;;5061741;28;20040;-83
2024/02/21 09:13:27;;;;;;;11.90;4.68;;;9.60;99.90;;;;;;5061069;28;20029;-83
2024/02/21 09:15:53;;;;;;;14.60;5.00;;;9.60;99.90;;;;;;5059400;28;20032;-83
2024/02/21 09:18:19;;;;;;;8.80;3.35;;;9.60;99.90;;;;;;5060863;28;20021;-83
2024/02/21 09:20:45;;;;;;;12.40;3.80;;;9.60;99.90;;;;;;5060480;28;20021;-83
2024/02/21 09:23:11;;;;;;;8.77;3.60;;;9.70;99.90;;;;;;5061438;28;20116;-83
2024/02/21 09:25:37;;;;;;;18.88;4.75;;;;;;;;;;5060570;28;20051;-84
2024/02/21 09:28:04;;;;;;;13.02;3.92;;;9.70;99.90;;;;;;5060306;28;20029;-84
2024/02/21 09:30:30;;;;;;;12.48;3.88;;;9.70;99.90;;;;;;5060635;28;20392;-83
2024/02/21 09:32:58;;;;;;;10.98;3.75;;;;;;;;;;5060345;28;20047;-83
2024/02/21 09:35:26;;;;;;;10.30;3.90;;;9.60;99.90;;;;;;5061034;28;20033;-84
2024/02/21 09:37:52;;;;;;;13.70;3.97;;;;;;;;;;5060783;28;20071;-83
2024/02/21 09:40:19;;;;;;;8.15;3.03;;;;;;;;;;5059530;28;20025;-83
2024/02/21 09:42:47;;;;;;;11.60;3.92;;;9.70;99.90;;;;;;5060775;28;20036;-83
2024/02/21 09:45:24;;;;;;;9.68;3.85;;;9.70;99.90;;;;;;5061204;28;20561;-83
2024/02/21 09:48:11;;;;;;;23.15;3.55;;;9.80;99.90;;;;;;5061430;28;20039;-84
2024/02/21 09:50:40;;;;;;;8.02;2.53;;;9.80;99.90;;;;;;5060965;28;20530;-84
2024/02/21 09:53:07;;;;;;;12.18;3.20;;;9.80;99.90;;;;;;5060446;28;20447;-83
2024/02/21 09:55:40;;;;;;;6.97;2.90;;;9.90;99.90;;;;;;5060533;28;20100;-83
2024/02/21 09:58:05;;;;;;;10.52;2.47;;;9.90;99.90;;;;;;5060401;28;20025;-83
2024/02/21 10:00:31;;;;;;;10.20;2.83;;;;;;;;;;5062177;28;20081;-83
2024/02/21 10:02:58;;;;;;;7.70;2.30;;;10.00;99.90;;;;;;5061950;28;20029;-84
2024/02/21 10:05:25;;;;;;;13.18;2.92;;;9.90;99.90;;;;;;5059909;28;20029;-83
2024/02/21 10:07:51;;;;;;;11.70;2.53;;;10.00;99.90;;;;;;5060721;28;20025;-83
2024/02/21 10:10:21;;;;;;;7.65;2.65;;;;;;;;;;5061001;28;20028;-83
2024/02/21 10:12:59;;;;;;;7.07;2.38;;;10.00;99.90;;;;;;5060626;28;20025;-83
2024/02/21 10:15:25;;;;;;;8.38;2.28;;;10.10;99.90;;;;;;5061118;28;20028;-83
2024/02/21 10:17:59;;;;;;;9.13;2.90;;;10.20;99.90;;;;;;5060429;28;20025;-83
2024/02/21 10:20:25;;;;;;;8.43;1.88;;;;;;;;;;5062779;28;20031;-84
2024/02/21 10:23:10;;;;;;;13.85;2.70;;;10.30;99.90;;;;;;5062711;28;20033;-83
2024/02/21 10:25:41;;;;;;;5.80;2.22;;;10.30;99.90;;;;;;5061603;28;20016;-83
2024/02/21 10:28:07;;;;;;;7.78;1.98;;;10.30;99.90;;;;;;5062179;28;20063;-83
2024/02/21 10:30:32;;;;;;;10.90;2.67;;;10.20;99.90;;;;;;5061407;28;20033;-83
2024/02/21 10:32:58;;;;;;;5.68;2.08;;;10.40;99.90;;;;;;5060414;28;20031;-83
2024/02/21 10:35:32;;;;;;;8.35;2.10;;;10.40;99.90;;;;;;5061679;28;20029;-83
2024/02/21 10:37:58;;;;;;;6.78;1.67;;;;;;;;;;5060295;28;20076;-83
2024/02/21 10:40:30;;;;;;;10.23;2.88;;;10.60;99.90;;;;;;5060380;28;20029;-83
2024/02/21 10:43:03;;;;;;;4.38;1.55;;;10.60;99.90;;;;;;5060271;28;20387;-84
2024/02/21 10:45:31;;;;;;;5.88;1.58;;;10.70;99.90;;;;;;5060166;28;20025;-84
2024/02/21 10:48:11;;;;;;;5.00;1.83;;;10.60;99.90;;;;;;5059835;28;20387;-84
2024/02/21 10:50:46;;;;;;;3.92;1.45;;;10.60;99.90;;;;;;5060099;28;20021;-83
2024/02/21 10:53:25;;;;;;;6.00;1.60;;;10.60;99.90;;;;;;5058984;28;20472;-84
2024/02/21 10:56:00;;;;;;;5.25;1.88;;;10.70;99.90;;;;;;5059995;28;20025;-83
2024/02/21 10:58:27;;;;;;;4.45;1.17;;;10.70;99.90;;;;;;5059649;28;20021;-83
2024/02/21 11:00:54;;;;;;;5.80;1.55;;;;;;;;;;5059518;28;20021;-85
2024/02/21 11:03:20;;;;;;;4.18;1.33;;;;;;;;;;5059519;28;20025;-83
2024/02/21 11:05:46;;;;;;;6.10;1.33;;;;;;;;;;5059635;28;20051;-84
2024/02/21 11:08:13;;;;;;;3.97;1.10;;;;;;;;;;5058690;28;20057;-84
2024/02/21 11:10:40;;;;;;;5.03;1.23;;;10.60;99.90;;;;;;5059470;28;20029;-83
2024/02/21 11:13:10;;;;;;;4.88;1.90;;;10.50;99.90;;;;;;5059748;28;20027;-84
2024/02/21 11:15:35;;;;;;;5.03;1.52;;;10.40;99.90;;;;;;5059903;28;20074;-83
2024/02/21 11:18:01;;;;;;;6.70;1.88;;;10.40;99.90;;;;;;5060104;28;20115;-84
2024/02/21 11:20:35;;;;;;;9.32;2.20;;;10.30;99.90;;;;;;5059647;28;20028;-83
2024/02/21 11:23:01;;;;;;;3.35;1.67;;;;;;;;;;5058957;28;20028;-84
2024/02/21 11:25:28;;;;;;;5.28;2.47;;;10.20;99.90;;;;;;5059105;28;20029;-84
2024/02/21 11:28:01;;;;;;;5.68;2.70;;;10.20;99.90;;;;;;5059440;28;20028;-84
2024/02/21 11:30:32;;;;;;;5.78;2.53;;;10.20;99.90;;;;;;5059111;28;20021;-85
2024/02/21 11:33:06;;;;;;;6.57;3.10;;;10.20;99.90;;;;;;5057392;28;20052;-84
2024/02/21 11:35:35;;;;;;;8.65;3.97;;;10.10;99.90;;;;;;5058804;28;20036;-84
2024/02/21 11:38:14;;;;;;;5.43;3.35;;;10.10;99.90;;;;;;5057756;28;20107;-83
2024/02/21 11:40:41;;;;;;;;;;;10.10;99.90;;;;;;5060738;28;20464;-83
2024/02/21 11:43:07;;;;;;;10.57;3.63;;;;;;;;;;5059616;28;19927;-84
2024/02/21 11:45:33;;;;;;;7.35;3.17;;;10.10;99.90;;;;;;5059076;28;20025;-83
2024/02/21 11:48:05;;;;;;;8.68;3.33;;;10.20;99.90;;;;;;5060985;28;20017;-83
2024/02/21 11:50:31;;;;;;;5.75;2.80;;;10.30;99.90;;;;;;5058996;28;20022;-84
2024/02/21 11:52:58;;;;;;;7.18;2.80;;;10.40;99.90;;;;;;5060122;28;20028;-83
2024/02/21 11:55:23;;;;;;;5.97;2.63;;;10.40;99.90;;;;;;5059189;28;20029;-83
2024/02/21 11:57:49;;;;;;;6.22;2.75;;;10.60;99.90;;;;;;5059406;28;20109;-83
2024/02/21 12:00:16;;;;;;;5.75;2.70;;;10.70;99.90;;;;;;5059558;28;20024;-83
2024/02/21 12:02:43;;;;;;;8.57;2.65;;;10.70;99.90;;;;;;5060329;28;20047;-83
2024/02/21 12:05:09;;;;;;;4.47;2.33;;;10.90;99.90;;;;;;5058319;28;20432;-84
2024/02/21 12:07:39;;;;;;;5.68;2.15;;;10.90;99.90;;;;;;5058850;28;20025;-83
2024/02/21 12:10:09;;;;;;;7.15;2.65;;;11.00;99.90;;;;;;5059820;28;20461;-83
2024/02/21 12:12:37;;;;;;;5.65;2.22;;;10.90;99.90;;;;;;5060037;28;20017;-84
2024/02/21 12:15:04;;;;;;;7.32;2.40;;;11.00;99.90;;;;;;5059615;28;20037;-83
2024/02/21 12:17:30;;;;;;;6.85;1.88;;;11.00;99.90;;;;;;5059027;28;20027;-83
2024/02/21 12:19:57;;;;;;;6.03;2.25;;;10.90;99.90;;;;;;5059909;28;20013;-84
2024/02/21 12:22:24;;;;;;;4.93;1.77;;;10.80;99.90;;;;;;5059528;28;20033;-83
2024/02/21 12:24:50;;;;;;;4.55;1.98;;;;;;;;;;5059002;28;20028;-84
2024/02/21 12:27:16;;;;;;;6.53;1.95;;;10.90;99.90;;;;;;5061052;28;20017;-83
2024/02/21 12:29:42;;;;;;;8.02;2.58;;;10.90;99.90;;;;;;5060764;28;20037;-84
2024/02/21 12:32:07;;;;;;;3.78;1.38;;;10.90;99.90;;;;;;5060029;28;20116;-84
2024/02/21 12:34:33;;;;;;;4.22;1.50;;;10.90;99.90;;;;;;5058792;28;20049;-84
2024/02/21 12:36:59;;;;;;;7.95;2.60;;;11.10;99.90;;;;;;5060393;28;20024;-85
2024/02/21 12:39:27;;;;;;;8.70;1.73;;;11.00;99.90;;;;;;5058032;28;20037;-85
2024/02/21 12:41:54;;;;;;;4.57;1.65;;;11.20;99.90;;;;;;5057251;28;20059;-87
2024/02/21 12:44:20;;;;;;;9.13;2.17;;;;;;;;;;5054972;28;20049;-86
2024/02/21 12:46:45;;;;;;;3.75;1.52;;;11.30;99.90;;;;;;5055579;28;20021;-86
2024/02/21 12:49:11;;;;;;;4.07;1.60;;;;;;;;;;5057799;28;20025;-83
2024/02/21 12:51:37;;;;;;;3.90;1.52;;;11.30;99.90;;;;;;5062792;28;20036;-87
2024/02/21 12:54:04;;;;;;;6.78;1.35;;;;;;;;;;5061057;28;20024;-86
2024/02/21 12:56:30;;;;;;;3.88;1.13;;;;;;;;;;5060281;28;20021;-85
2024/02/21 12:58:57;;;;;;;3.78;1.05;;;;;;;;;;5059850;28;20480;-84
2024/02/21 13:01:23;;;;;;;5.93;1.52;;;11.10;99.90;;;;;;5062505;28;20389;-85
2024/02/21 13:03:48;;;;;;;6.05;1.35;;;11.00;99.90;;;;;;5062197;28;20020;-85
2024/02/21 13:06:14;;;;;;;8.00;1.85;;;11.00;99.90;;;;;;5060625;28;20025;-85
2024/02/21 13:08:41;;;;;;;2.90;0.93;;;11.00;99.90;;;;;;5060364;28;20067;-86
2024/02/21 13:11:06;;;;;;;8.23;1.55;;;11.00;99.90;;;;;;5060013;28;20089;-86
2024/02/21 13:13:33;;;;;;;6.97;1.30;;;11.00;99.90;;;;;;5059594;28;20547;-86